sensor_id;sensor_type;location;lat;lon;timestamp;P1;P2;P0
55076;PMS7003;40971;44.702;11.030;2023-07-30T00:09:01;16.00;16.00;13.00
55076;PMS7003;40971;44.702;11.030;2023-07-30T00:19:03;13.40;13.40;12.00
55076;PMS7003;40971;44.702;11.030;2023-07-30T00:29:05;14.00;14.00;10.20
55076;PMS7003;40971;44.702;11.030;2023-07-30T00:39:06;13.67;13.00;9.00
55076;PMS7003;40971;44.702;11.030;2023-07-30T00:49:08;13.40;13.40;9.00
55076;PMS7003;40971;44.702;11.030;2023-07-30T00:59:11;16.43;14.71;12.14
55076;PMS7003;40971;44.702;11.030;2023-07-30T01:09:13;11.00;11.00;8.33
55076;PMS7003;40971;44.702;11.030;2023-07-30T01:19:16;8.17;8.17;6.50
55076;PMS7003;40971;44.702;11.030;2023-07-30T01:29:22;7.00;7.00;6.00
55076;PMS7003;40971;44.702;11.030;2023-07-30T01:39:29;6.83;6.83;5.00
55076;PMS7003;40971;44.702;11.030;2023-07-30T01:49:34;6.83;6.83;6.00
55076;PMS7003;40971;44.702;11.030;2023-07-30T01:59:35;9.33;9.33;8.67
55076;PMS7003;40971;44.702;11.030;2023-07-30T02:09:42;8.67;8.00;7.00
55076;PMS7003;40971;44.702;11.030;2023-07-30T02:19:44;6.50;6.00;6.00
55076;PMS7003;40971;44.702;11.030;2023-07-30T02:29:46;10.80;9.60;6.20
55076;PMS7003;40971;44.702;11.030;2023-07-30T02:39:49;7.00;6.17;5.83
55076;PMS7003;40971;44.702;11.030;2023-07-30T02:49:51;7.20;7.20;6.00
55076;PMS7003;40971;44.702;11.030;2023-07-30T02:59:53;6.40;6.40;5.00
55076;PMS7003;40971;44.702;11.030;2023-07-30T03:09:55;6.00;6.00;5.00
55076;PMS7003;40971;44.702;11.030;2023-07-30T03:19:58;8.00;8.00;6.00
55076;PMS7003;40971;44.702;11.030;2023-07-30T03:30:01;5.33;5.33;4.50
55076;PMS7003;40971;44.702;11.030;2023-07-30T03:40:04;5.83;5.83;5.00
55076;PMS7003;40971;44.702;11.030;2023-07-30T03:50:07;9.17;7.83;5.00
55076;PMS7003;40971;44.702;11.030;2023-07-30T04:00:09;8.00;8.00;6.00
55076;PMS7003;40971;44.702;11.030;2023-07-30T04:10:10;8.00;6.00;4.00
55076;PMS7003;40971;44.702;11.030;2023-07-30T04:20:13;8.67;8.67;7.83
55076;PMS7003;40971;44.702;11.030;2023-07-30T04:30:15;8.40;8.40;6.60
55076;PMS7003;40971;44.702;11.030;2023-07-30T04:40:18;9.00;9.00;7.00
55076;PMS7003;40971;44.702;11.030;2023-07-30T04:50:21;7.50;7.50;7.00
55076;PMS7003;40971;44.702;11.030;2023-07-30T05:00:24;11.00;9.00;6.83
55076;PMS7003;40971;44.702;11.030;2023-07-30T05:10:27;9.50;8.83;7.00
55076;PMS7003;40971;44.702;11.030;2023-07-30T05:20:29;8.40;8.40;5.40
55076;PMS7003;40971;44.702;11.030;2023-07-30T05:30:32;10.40;9.00;6.00
55076;PMS7003;40971;44.702;11.030;2023-07-30T05:40:35;6.40;6.40;5.80
55076;PMS7003;40971;44.702;11.030;2023-07-30T05:50:38;8.33;7.67;6.00
55076;PMS7003;40971;44.702;11.030;2023-07-30T06:00:41;6.00;5.80;4.80
55076;PMS7003;40971;44.702;11.030;2023-07-30T06:10:44;6.33;6.33;5.00
55076;PMS7003;40971;44.702;11.030;2023-07-30T06:20:48;5.67;5.67;4.83
55076;PMS7003;40971;44.702;11.030;2023-07-30T06:30:51;5.67;4.83;4.50
55076;PMS7003;40971;44.702;11.030;2023-07-30T06:40:54;5.20;5.20;4.80
55076;PMS7003;40971;44.702;11.030;2023-07-30T06:50:58;6.00;6.00;4.00
55076;PMS7003;40971;44.702;11.030;2023-07-30T07:01:00;4.60;4.20;4.00
55076;PMS7003;40971;44.702;11.030;2023-07-30T07:11:02;5.20;5.20;4.00
55076;PMS7003;40971;44.702;11.030;2023-07-30T07:21:06;5.00;5.00;3.83
55076;PMS7003;40971;44.702;11.030;2023-07-30T07:31:09;3.17;3.17;3.00
55076;PMS7003;40971;44.702;11.030;2023-07-30T07:41:14;5.00;5.00;4.00
55076;PMS7003;40971;44.702;11.030;2023-07-30T07:51:19;8.00;7.00;6.00
55076;PMS7003;40971;44.702;11.030;2023-07-30T08:01:21;5.00;5.00;5.00
55076;PMS7003;40971;44.702;11.030;2023-07-30T08:11:22;5.67;5.67;4.00
55076;PMS7003;40971;44.702;11.030;2023-07-30T08:21:23;5.50;5.50;4.00
55076;PMS7003;40971;44.702;11.030;2023-07-30T08:31:25;7.00;7.00;6.00
55076;PMS7003;40971;44.702;11.030;2023-07-30T08:41:26;5.00;5.00;5.00
55076;PMS7003;40971;44.702;11.030;2023-07-30T08:51:27;7.50;7.00;6.00
55076;PMS7003;40971;44.702;11.030;2023-07-30T09:01:34;7.00;7.00;6.00
55076;PMS7003;40971;44.702;11.030;2023-07-30T09:11:38;6.00;6.00;6.00
55076;PMS7003;40971;44.702;11.030;2023-07-30T09:21:40;8.00;7.67;6.00
55076;PMS7003;40971;44.702;11.030;2023-07-30T09:31:49;5.50;5.50;5.00
55076;PMS7003;40971;44.702;11.030;2023-07-30T09:42:00;8.00;8.00;5.50
55076;PMS7003;40971;44.702;11.030;2023-07-30T09:52:02;5.50;4.50;4.00
55076;PMS7003;40971;44.702;11.030;2023-07-30T10:02:04;7.00;6.00;6.00
55076;PMS7003;40971;44.702;11.030;2023-07-30T10:12:06;7.00;5.50;5.00
55076;PMS7003;40971;44.702;11.030;2023-07-30T10:32:11;5.50;5.50;5.00
55076;PMS7003;40971;44.702;11.030;2023-07-30T10:42:13;8.50;8.50;6.00
55076;PMS7003;40971;44.702;11.030;2023-07-30T10:52:14;6.00;6.00;5.50
55076;PMS7003;40971;44.702;11.030;2023-07-30T11:02:16;7.00;7.00;6.00
55076;PMS7003;40971;44.702;11.030;2023-07-30T11:12:19;7.00;7.00;6.00
55076;PMS7003;40971;44.702;11.030;2023-07-30T11:22:32;6.00;6.00;6.00
55076;PMS7003;40971;44.702;11.030;2023-07-30T11:32:35;6.00;6.00;6.00
55076;PMS7003;40971;44.702;11.030;2023-07-30T11:42:36;8.00;7.00;6.50
55076;PMS7003;40971;44.702;11.030;2023-07-30T11:52:50;9.00;9.00;7.50
55076;PMS7003;40971;44.702;11.030;2023-07-30T12:02:52;9.00;8.00;7.00
55076;PMS7003;40971;44.702;11.030;2023-07-30T12:12:53;8.00;8.00;6.67
55076;PMS7003;40971;44.702;11.030;2023-07-30T12:22:54;6.00;6.00;6.00
55076;PMS7003;40971;44.702;11.030;2023-07-30T12:32:55;7.33;7.33;7.00
55076;PMS7003;40971;44.702;11.030;2023-07-30T12:42:57;7.67;7.67;6.67
55076;PMS7003;40971;44.702;11.030;2023-07-30T12:52:58;7.50;7.50;7.00
55076;PMS7003;40971;44.702;11.030;2023-07-30T13:03:00;7.00;7.00;6.00
55076;PMS7003;40971;44.702;11.030;2023-07-30T13:13:03;7.40;7.40;6.40
55076;PMS7003;40971;44.702;11.030;2023-07-30T13:23:04;6.67;6.67;6.33
55076;PMS7003;40971;44.702;11.030;2023-07-30T13:33:05;7.00;7.00;6.00
55076;PMS7003;40971;44.702;11.030;2023-07-30T13:43:07;7.67;7.67;6.00
55076;PMS7003;40971;44.702;11.030;2023-07-30T13:53:09;9.33;9.33;8.00
55076;PMS7003;40971;44.702;11.030;2023-07-30T14:03:12;9.57;9.57;8.00
55076;PMS7003;40971;44.702;11.030;2023-07-30T14:13:14;7.67;7.67;7.00
55076;PMS7003;40971;44.702;11.030;2023-07-30T14:23:16;8.00;8.00;8.00
55076;PMS7003;40971;44.702;11.030;2023-07-30T14:33:17;8.67;8.67;8.33
55076;PMS7003;40971;44.702;11.030;2023-07-30T14:43:18;8.67;8.67;7.67
55076;PMS7003;40971;44.702;11.030;2023-07-30T14:53:20;9.33;9.33;8.00
55076;PMS7003;40971;44.702;11.030;2023-07-30T15:03:22;8.80;8.80;7.80
55076;PMS7003;40971;44.702;11.030;2023-07-30T15:13:23;9.33;9.33;7.33
55076;PMS7003;40971;44.702;11.030;2023-07-30T15:23:26;8.00;8.00;7.67
55076;PMS7003;40971;44.702;11.030;2023-07-30T15:33:27;8.67;7.00;6.67
55076;PMS7003;40971;44.702;11.030;2023-07-30T15:43:28;9.00;8.00;7.00
55076;PMS7003;40971;44.702;11.030;2023-07-30T15:53:30;9.67;9.67;5.67
55076;PMS7003;40971;44.702;11.030;2023-07-30T16:03:31;10.67;10.00;8.67
55076;PMS7003;40971;44.702;11.030;2023-07-30T16:13:36;10.00;10.00;8.67
55076;PMS7003;40971;44.702;11.030;2023-07-30T16:23:37;9.33;9.33;7.67
55076;PMS7003;40971;44.702;11.030;2023-07-30T16:33:39;9.67;9.67;8.00
55076;PMS7003;40971;44.702;11.030;2023-07-30T16:43:42;8.00;8.00;7.00
55076;PMS7003;40971;44.702;11.030;2023-07-30T16:53:44;10.67;10.33;8.33
55076;PMS7003;40971;44.702;11.030;2023-07-30T17:03:47;9.57;9.43;8.43
55076;PMS7003;40971;44.702;11.030;2023-07-30T17:13:51;8.71;8.71;7.29
55076;PMS7003;40971;44.702;11.030;2023-07-30T17:23:53;10.60;10.60;9.00
55076;PMS7003;40971;44.702;11.030;2023-07-30T17:33:54;10.00;10.00;9.00
55076;PMS7003;40971;44.702;11.030;2023-07-30T17:43:55;9.00;9.00;9.00
55076;PMS7003;40971;44.702;11.030;2023-07-30T17:53:56;10.00;10.00;9.00
55076;PMS7003;40971;44.702;11.030;2023-07-30T18:03:59;13.67;12.00;8.67
55076;PMS7003;40971;44.702;11.030;2023-07-30T18:14:00;12.00;12.00;10.00
55076;PMS7003;40971;44.702;11.030;2023-07-30T18:24:02;12.00;12.00;9.67
55076;PMS7003;40971;44.702;11.030;2023-07-30T18:34:05;12.20;12.20;10.00
55076;PMS7003;40971;44.702;11.030;2023-07-30T18:44:07;13.67;13.67;11.00
55076;PMS7003;40971;44.702;11.030;2023-07-30T18:54:08;12.67;12.00;9.67
55076;PMS7003;40971;44.702;11.030;2023-07-30T19:04:09;10.67;10.67;9.00
55076;PMS7003;40971;44.702;11.030;2023-07-30T19:14:11;10.00;10.00;8.00
55076;PMS7003;40971;44.702;11.030;2023-07-30T19:24:12;9.33;8.33;7.67
55076;PMS7003;40971;44.702;11.030;2023-07-30T19:34:14;12.00;11.00;10.20
55076;PMS7003;40971;44.702;11.030;2023-07-30T19:44:16;13.00;13.00;10.00
55076;PMS7003;40971;44.702;11.030;2023-07-30T19:54:17;13.67;13.00;10.33
55076;PMS7003;40971;44.702;11.030;2023-07-30T20:04:18;12.00;12.00;10.00
55076;PMS7003;40971;44.702;11.030;2023-07-30T20:14:20;9.67;9.67;8.00
55076;PMS7003;40971;44.702;11.030;2023-07-30T20:24:21;10.33;10.33;9.00
55076;PMS7003;40971;44.702;11.030;2023-07-30T20:34:24;9.80;8.80;7.20
55076;PMS7003;40971;44.702;11.030;2023-07-30T20:44:26;8.00;8.00;7.00
55076;PMS7003;40971;44.702;11.030;2023-07-30T20:54:27;8.00;8.00;7.00
55076;PMS7003;40971;44.702;11.030;2023-07-30T21:04:29;9.40;9.40;6.80
55076;PMS7003;40971;44.702;11.030;2023-07-30T21:14:30;8.33;8.33;7.33
55076;PMS7003;40971;44.702;11.030;2023-07-30T21:24:31;7.00;7.00;6.00
55076;PMS7003;40971;44.702;11.030;2023-07-30T21:34:34;10.50;10.50;8.67
55076;PMS7003;40971;44.702;11.030;2023-07-30T21:44:36;10.00;10.00;7.80
55076;PMS7003;40971;44.702;11.030;2023-07-30T21:54:37;11.00;10.00;9.00
55076;PMS7003;40971;44.702;11.030;2023-07-30T22:04:38;10.00;10.00;8.00
55076;PMS7003;40971;44.702;11.030;2023-07-30T22:14:39;8.00;8.00;6.00
55076;PMS7003;40971;44.702;11.030;2023-07-30T22:24:40;9.00;9.00;8.00
55076;PMS7003;40971;44.702;11.030;2023-07-30T22:34:41;9.00;7.50;6.00
55076;PMS7003;40971;44.702;11.030;2023-07-30T22:44:43;8.60;8.40;6.00
55076;PMS7003;40971;44.702;11.030;2023-07-30T22:54:44;6.67;6.67;6.00
55076;PMS7003;40971;44.702;11.030;2023-07-30T23:04:47;8.83;8.83;6.00
55076;PMS7003;40971;44.702;11.030;2023-07-30T23:14:49;8.20;8.20;8.00
55076;PMS7003;40971;44.702;11.030;2023-07-30T23:24:50;9.00;8.00;7.67
55076;PMS7003;40971;44.702;11.030;2023-07-30T23:34:53;8.33;8.33;7.00
55076;PMS7003;40971;44.702;11.030;2023-07-30T23:44:54;8.00;8.00;6.67
55076;PMS7003;40971;44.702;11.030;2023-07-30T23:54:57;9.83;9.67;7.00
